Time;durP1;ratioP1;P1;durP2;ratioP2;P2;SDS_P1;SDS_P2;PMS_P1;PMS_P2;Temp;Humidity;BMP_temperature;BMP_pressure;BME280_temperature;BME280_humidity;BME280_pressure;Samples;Min_cycle;Max_cycle;Signal;HPM_P1;HPM_P2
2023/06/17 00:01:15;;;;;;;14.13;9.23;;;16.70;99.90;;;;;;5092199;28;20041;-80
2023/06/17 00:03:42;;;;;;;18.55;9.32;;;16.70;99.90;;;;;;5108998;28;20048;-80
2023/06/17 00:06:10;;;;;;;17.75;9.80;;;16.80;99.90;;;;;;5092459;28;20494;-80
2023/06/17 00:08:37;;;;;;;16.98;9.35;;;16.70;99.90;;;;;;5107373;28;20407;-80
2023/06/17 00:11:04;;;;;;;15.23;9.13;;;16.70;99.90;;;;;;5112010;28;20047;-79
2023/06/17 00:13:30;;;;;;;19.38;10.07;;;16.60;99.90;;;;;;5112098;28;20077;-80
2023/06/17 00:15:59;;;;;;;17.45;10.57;;;16.60;99.90;;;;;;5111847;28;20105;-79
2023/06/17 00:18:26;;;;;;;16.83;9.55;;;16.60;99.90;;;;;;5115945;28;20048;-80
2023/06/17 00:20:53;;;;;;;16.67;9.95;;;16.60;99.90;;;;;;5124617;28;20040;-80
2023/06/17 00:23:20;;;;;;;19.00;9.80;;;16.60;99.90;;;;;;5111648;28;20040;-80
2023/06/17 00:25:48;;;;;;;18.85;10.00;;;16.60;99.90;;;;;;5111875;28;20035;-80
2023/06/17 00:28:15;;;;;;;16.40;9.82;;;16.70;99.90;;;;;;5111105;28;20492;-80
2023/06/17 00:30:45;;;;;;;19.48;11.23;;;16.60;99.90;;;;;;5094682;28;20097;-79
2023/06/17 00:33:13;;;;;;;16.25;9.95;;;16.50;99.90;;;;;;5111350;28;20118;-80
2023/06/17 00:35:39;;;;;;;15.38;10.40;;;16.50;99.90;;;;;;5111339;28;20042;-80
2023/06/17 00:38:06;;;;;;;19.27;9.93;;;16.50;99.90;;;;;;5108156;28;20032;-80
2023/06/17 00:40:33;;;;;;;14.55;10.02;;;16.50;99.90;;;;;;5098660;28;20036;-80
2023/06/17 00:42:59;;;;;;;16.05;9.68;;;16.50;99.90;;;;;;5091186;28;20040;-80
2023/06/17 00:45:26;;;;;;;18.23;10.70;;;16.50;99.90;;;;;;5091513;28;20051;-80
2023/06/17 00:47:53;;;;;;;15.18;10.18;;;16.50;99.90;;;;;;5091526;28;20040;-80
2023/06/17 00:50:20;;;;;;;16.23;10.50;;;16.50;99.90;;;;;;5099422;28;20041;-80
2023/06/17 00:52:51;;;;;;;20.58;11.40;;;16.50;99.90;;;;;;5090627;28;20047;-80
2023/06/17 00:55:18;;;;;;;18.13;10.25;;;16.40;99.90;;;;;;5116145;28;20056;-80
2023/06/17 00:57:47;;;;;;;15.65;10.98;;;16.50;99.90;;;;;;5077683;28;20510;-80
2023/06/17 01:00:15;;;;;;;17.50;9.70;;;16.50;99.90;;;;;;5111186;28;20092;-80
2023/06/17 01:02:43;;;;;;;18.15;10.98;;;16.40;99.90;;;;;;5094269;28;20054;-80
2023/06/17 01:05:13;;;;;;;18.55;11.20;;;16.40;99.90;;;;;;5095425;28;20132;-80
2023/06/17 01:07:50;;;;;;;18.40;10.30;;;16.40;99.90;;;;;;5110645;28;20044;-80
2023/06/17 01:10:34;;;;;;;16.42;10.50;;;16.30;99.90;;;;;;5111261;28;20040;-80
2023/06/17 01:13:03;;;;;;;21.13;11.05;;;16.30;99.90;;;;;;5110729;28;20047;-80
2023/06/17 01:15:34;;;;;;;14.90;10.23;;;16.30;99.90;;;;;;5111120;28;20024;-80
2023/06/17 01:18:07;;;;;;;20.92;11.48;;;16.20;99.90;;;;;;5110358;28;20044;-80
2023/06/17 01:20:33;;;;;;;20.52;10.90;;;16.20;99.90;;;;;;5094459;28;20485;-80
2023/06/17 01:23:03;;;;;;;17.50;10.63;;;16.20;99.90;;;;;;5094002;28;20123;-80
2023/06/17 01:25:31;;;;;;;22.50;11.93;;;16.20;99.90;;;;;;5127756;28;20128;-80
2023/06/17 01:28:00;;;;;;;17.23;10.75;;;16.10;99.90;;;;;;5094154;28;20122;-80
2023/06/17 01:30:30;;;;;;;21.17;11.88;;;16.20;99.90;;;;;;5110521;28;20044;-80
2023/06/17 01:32:58;;;;;;;17.55;11.18;;;16.10;99.90;;;;;;5109838;28;20040;-80
2023/06/17 01:35:32;;;;;;;18.42;11.82;;;16.10;99.90;;;;;;5110543;28;20071;-80
2023/06/17 01:38:07;;;;;;;15.90;10.93;;;16.10;99.90;;;;;;5109746;28;20032;-80
2023/06/17 01:40:36;;;;;;;22.58;11.57;;;16.10;99.90;;;;;;5110670;28;20036;-80
2023/06/17 01:43:05;;;;;;;17.65;11.50;;;16.20;99.90;;;;;;5110324;28;20036;-79
2023/06/17 01:45:33;;;;;;;17.17;11.38;;;16.20;99.90;;;;;;5110269;28;20476;-80
2023/06/17 01:47:59;;;;;;;18.17;11.70;;;16.20;99.90;;;;;;5093683;28;20050;-80
2023/06/17 01:50:26;;;;;;;19.05;11.55;;;16.10;99.90;;;;;;5110110;28;20043;-80
2023/06/17 01:52:53;;;;;;;19.20;11.43;;;16.20;99.90;;;;;;5076632;28;20062;-80
2023/06/17 01:55:20;;;;;;;20.35;12.18;;;16.20;99.90;;;;;;5099751;28;20112;-80
2023/06/17 01:57:48;;;;;;;24.95;12.40;;;16.20;99.90;;;;;;5130739;28;20044;-80
2023/06/17 02:00:15;;;;;;;22.75;12.18;;;16.10;99.90;;;;;;5112532;28;20040;-80
2023/06/17 02:02:46;;;;;;;20.27;13.20;;;16.10;99.90;;;;;;5126929;28;20504;-79
2023/06/17 02:05:12;;;;;;;18.30;11.30;;;16.10;99.90;;;;;;5093625;28;20488;-80
2023/06/17 02:07:40;;;;;;;19.15;12.10;;;16.10;99.90;;;;;;5076480;28;20044;-80
2023/06/17 02:10:07;;;;;;;21.30;12.77;;;16.20;99.90;;;;;;5106623;28;20049;-80
2023/06/17 02:12:34;;;;;;;20.35;12.40;;;16.10;99.90;;;;;;5113179;28;20127;-80
2023/06/17 02:15:00;;;;;;;19.45;11.98;;;16.10;99.90;;;;;;5113088;28;20044;-80
2023/06/17 02:17:27;;;;;;;18.27;11.93;;;16.10;99.90;;;;;;5113606;28;20399;-80
2023/06/17 02:19:54;;;;;;;21.67;12.50;;;16.10;99.90;;;;;;5106016;28;20032;-80
2023/06/17 02:22:21;;;;;;;21.73;12.65;;;16.10;99.90;;;;;;5092758;28;20504;-80
2023/06/17 02:24:48;;;;;;;18.15;11.90;;;16.10;99.90;;;;;;5109475;28;20442;-81
2023/06/17 02:27:16;;;;;;;20.25;12.38;;;16.10;99.90;;;;;;5076788;28;20246;-80
2023/06/17 02:29:44;;;;;;;20.60;11.75;;;16.10;99.90;;;;;;5076680;28;20032;-79
2023/06/17 02:32:12;;;;;;;19.15;10.93;;;16.10;99.90;;;;;;5092316;28;20044;-80
2023/06/17 02:34:42;;;;;;;17.25;11.40;;;16.10;99.90;;;;;;5092889;28;20369;-80
2023/06/17 02:37:09;;;;;;;16.42;10.30;;;16.10;99.90;;;;;;5126354;28;20040;-80
2023/06/17 02:39:35;;;;;;;18.35;10.45;;;16.10;99.90;;;;;;5109661;28;20066;-80
2023/06/17 02:42:03;;;;;;;20.13;10.45;;;16.20;99.90;;;;;;5108973;28;20044;-80
2023/06/17 02:44:30;;;;;;;19.55;10.32;;;16.20;99.90;;;;;;5109289;28;20523;-79
2023/06/17 02:46:57;;;;;;;16.75;10.18;;;16.20;99.90;;;;;;5109023;28;20036;-80
2023/06/17 02:49:24;;;;;;;14.77;9.70;;;16.20;99.90;;;;;;5076127;28;20036;-79
2023/06/17 02:51:51;;;;;;;16.40;9.85;;;16.10;99.90;;;;;;5110318;28;20089;-80
2023/06/17 02:54:17;;;;;;;17.00;10.23;;;16.20;99.90;;;;;;5092486;28;20067;-80
2023/06/17 02:56:44;;;;;;;17.35;9.25;;;16.20;99.90;;;;;;5108989;28;20131;-80
2023/06/17 02:59:13;;;;;;;17.35;10.40;;;16.20;99.90;;;;;;5092377;28;20061;-80
2023/06/17 03:01:42;;;;;;;19.65;10.57;;;16.20;99.90;;;;;;5102332;28;20043;-80
2023/06/17 03:04:10;;;;;;;18.70;11.02;;;16.10;99.90;;;;;;5129134;28;20051;-79
2023/06/17 03:06:40;;;;;;;19.73;10.90;;;16.10;99.90;;;;;;5146241;28;20040;-80
2023/06/17 03:09:08;;;;;;;18.15;10.75;;;16.20;99.90;;;;;;5128789;28;20075;-80
2023/06/17 03:11:36;;;;;;;18.13;11.65;;;16.20;99.90;;;;;;5122073;28;20047;-80
2023/06/17 03:14:03;;;;;;;20.10;11.43;;;16.10;99.90;;;;;;5108573;28;20078;-80
2023/06/17 03:16:33;;;;;;;19.00;11.40;;;16.10;99.90;;;;;;5092759;28;20071;-80
2023/06/17 03:19:01;;;;;;;25.33;12.88;;;16.10;99.90;;;;;;5109832;28;20084;-80
2023/06/17 03:21:29;;;;;;;16.65;11.35;;;16.10;99.90;;;;;;5115722;28;20556;-80
2023/06/17 03:24:00;;;;;;;21.20;11.85;;;16.10;99.90;;;;;;5149664;28;20126;-80
2023/06/17 03:26:27;;;;;;;21.40;12.00;;;16.10;99.90;;;;;;5124038;28;20039;-80
2023/06/17 03:28:54;;;;;;;23.27;12.30;;;16.10;99.90;;;;;;5096382;28;20488;-80
2023/06/17 03:31:21;;;;;;;25.98;12.90;;;16.00;99.90;;;;;;5079652;28;20032;-80
2023/06/17 03:33:51;;;;;;;21.52;12.05;;;16.10;99.90;;;;;;5080902;28;20098;-80
2023/06/17 03:36:19;;;;;;;20.05;11.43;;;16.00;99.90;;;;;;5116112;28;20381;-80
2023/06/17 03:38:46;;;;;;;20.65;11.98;;;16.00;99.90;;;;;;5116110;28;20092;-80
2023/06/17 03:41:12;;;;;;;21.15;12.88;;;16.00;99.90;;;;;;5115973;28;20044;-80
2023/06/17 03:43:39;;;;;;;19.25;11.90;;;16.00;99.90;;;;;;5115994;28;20038;-80
2023/06/17 03:46:06;;;;;;;18.33;11.82;;;15.90;99.90;;;;;;5114550;28;20530;-80
2023/06/17 03:48:33;;;;;;;22.10;12.75;;;16.00;99.90;;;;;;5112666;28;20126;-80
2023/06/17 03:51:01;;;;;;;20.20;12.32;;;16.00;99.90;;;;;;5095652;28;20373;-80
2023/06/17 03:53:28;;;;;;;21.08;11.80;;;16.00;99.90;;;;;;5112574;28;20123;-80
2023/06/17 03:55:55;;;;;;;19.83;11.98;;;16.00;99.90;;;;;;5112602;28;20101;-80
2023/06/17 03:58:22;;;;;;;20.08;12.40;;;16.00;99.90;;;;;;5129564;28;20480;-80
2023/06/17 04:00:48;;;;;;;20.27;12.70;;;15.90;99.90;;;;;;5096078;28;20089;-79
2023/06/17 04:03:15;;;;;;;21.52;12.95;;;16.00;99.90;;;;;;5078751;28;20726;-80
2023/06/17 04:05:42;;;;;;;21.10;11.82;;;16.00;99.90;;;;;;5095885;28;20082;-80
2023/06/17 04:08:09;;;;;;;21.80;12.57;;;16.00;99.90;;;;;;5079370;28;20040;-80
2023/06/17 04:10:36;;;;;;;21.42;12.95;;;16.00;99.90;;;;;;5079686;28;20511;-80
2023/06/17 04:13:03;;;;;;;20.75;13.20;;;16.00;99.90;;;;;;5112172;28;20086;-80
2023/06/17 04:15:29;;;;;;;19.50;12.50;;;16.00;99.90;;;;;;5082220;28;20071;-80
2023/06/17 04:17:56;;;;;;;19.20;12.63;;;16.00;99.90;;;;;;5133144;28;20126;-80
2023/06/17 04:20:25;;;;;;;19.83;11.65;;;15.90;99.90;;;;;;5132512;28;20040;-80
2023/06/17 04:22:52;;;;;;;23.10;13.18;;;16.00;99.90;;;;;;5116255;28;20040;-80
2023/06/17 04:25:20;;;;;;;20.63;12.88;;;16.00;99.90;;;;;;5132657;28;20035;-80
2023/06/17 04:27:48;;;;;;;21.38;12.75;;;16.00;99.90;;;;;;5097139;28;20126;-80
2023/06/17 04:30:16;;;;;;;21.83;12.90;;;15.90;99.90;;;;;;5112398;28;20204;-80
2023/06/17 04:32:43;;;;;;;20.50;12.73;;;15.90;99.90;;;;;;5095495;28;20051;-80
2023/06/17 04:35:10;;;;;;;19.85;12.75;;;15.90;99.90;;;;;;5095445;28;20488;-80
2023/06/17 04:37:37;;;;;;;26.67;13.25;;;16.00;99.90;;;;;;5144197;28;20512;-80
2023/06/17 04:40:10;;;;;;;21.10;12.75;;;15.90;99.90;;;;;;5115584;28;20031;-80
2023/06/17 04:42:40;;;;;;;22.67;12.52;;;15.90;99.90;;;;;;5105063;28;20054;-80
2023/06/17 04:45:10;;;;;;;21.98;13.25;;;16.00;99.90;;;;;;5111913;28;20039;-80
2023/06/17 04:47:36;;;;;;;21.65;12.27;;;16.00;99.90;;;;;;5121816;28;20046;-80
2023/06/17 04:50:04;;;;;;;21.92;12.32;;;16.00;99.90;;;;;;5131523;28;20043;-80
2023/06/17 04:52:31;;;;;;;22.77;12.57;;;16.00;99.90;;;;;;5114792;28;20042;-80
2023/06/17 04:54:59;;;;;;;20.83;11.93;;;16.00;99.90;;;;;;5114726;28;20032;-80
2023/06/17 04:57:25;;;;;;;20.60;11.63;;;16.00;99.90;;;;;;5102246;28;20039;-79
2023/06/17 04:59:52;;;;;;;18.35;12.40;;;16.00;99.90;;;;;;5111148;28;20036;-79
2023/06/17 05:02:19;;;;;;;19.42;11.70;;;16.00;99.90;;;;;;5109754;28;20043;-79
2023/06/17 05:04:45;;;;;;;21.60;12.20;;;16.00;99.90;;;;;;5109642;28;20104;-80
2023/06/17 05:07:12;;;;;;;22.63;11.73;;;16.00;99.90;;;;;;5103680;28;20035;-80
2023/06/17 05:09:39;;;;;;;18.92;11.18;;;16.00;99.90;;;;;;5098252;28;20069;-80
2023/06/17 05:12:06;;;;;;;21.85;12.23;;;16.00;99.90;;;;;;5148226;28;20127;-80
2023/06/17 05:14:32;;;;;;;19.90;12.25;;;16.00;99.90;;;;;;5114479;28;20039;-80
2023/06/17 05:16:59;;;;;;;22.52;13.05;;;15.70;99.90;;;;;;5097882;28;20414;-80
2023/06/17 05:19:26;;;;;;;20.98;12.93;;;15.80;99.90;;;;;;5081423;28;20047;-80
2023/06/17 05:21:52;;;;;;;18.35;12.27;;;16.00;99.90;;;;;;5077724;28;20032;-80
2023/06/17 05:24:19;;;;;;;20.50;12.52;;;16.00;99.90;;;;;;5094028;28;20823;-80
2023/06/17 05:26:46;;;;;;;23.60;13.00;;;16.00;99.90;;;;;;5110748;28;20043;-80
2023/06/17 05:29:12;;;;;;;23.88;12.35;;;16.00;99.90;;;;;;5077169;28;20454;-81
2023/06/17 05:31:39;;;;;;;20.92;12.63;;;16.00;99.90;;;;;;5094015;28;20752;-80
2023/06/17 05:34:06;;;;;;;20.55;12.40;;;16.10;99.90;;;;;;5077793;28;20051;-80
2023/06/17 05:36:33;;;;;;;20.60;13.32;;;16.10;99.90;;;;;;5093993;28;20039;-80
2023/06/17 05:38:59;;;;;;;18.13;12.15;;;16.20;99.90;;;;;;5077101;28;20040;-80
2023/06/17 05:41:26;;;;;;;18.55;12.13;;;16.20;99.90;;;;;;5093727;28;20044;-79
2023/06/17 05:43:53;;;;;;;23.95;12.25;;;16.30;99.90;;;;;;5112727;28;20031;-80
2023/06/17 05:46:19;;;;;;;18.02;11.40;;;16.30;99.90;;;;;;5130591;28;20138;-80
2023/06/17 05:48:46;;;;;;;19.13;11.20;;;16.40;99.90;;;;;;5097196;28;20122;-80
2023/06/17 05:51:15;;;;;;;20.27;11.25;;;16.40;99.90;;;;;;5097375;28;20089;-80
2023/06/17 05:53:42;;;;;;;26.15;12.95;;;16.40;99.90;;;;;;5113392;28;20407;-79
2023/06/17 05:56:09;;;;;;;18.90;12.07;;;16.40;99.90;;;;;;5110296;28;20056;-80
2023/06/17 05:58:36;;;;;;;20.95;11.70;;;16.50;99.90;;;;;;5077060;28;20494;-80
2023/06/17 06:01:03;;;;;;;19.60;10.68;;;16.50;99.90;;;;;;5109967;28;20036;-80
2023/06/17 06:03:30;;;;;;;19.42;10.88;;;16.50;99.90;;;;;;5076192;28;20484;-79
2023/06/17 06:05:56;;;;;;;15.85;9.63;;;16.50;99.90;;;;;;5076422;28;20039;-80
2023/06/17 06:08:23;;;;;;;19.60;10.02;;;16.50;99.90;;;;;;5093211;28;20036;-80
2023/06/17 06:10:50;;;;;;;17.30;9.75;;;16.60;99.90;;;;;;5093534;28;20036;-80
2023/06/17 06:13:16;;;;;;;17.27;9.57;;;16.60;99.90;;;;;;5093142;28;20501;-80
2023/06/17 06:15:43;;;;;;;19.02;9.85;;;16.60;99.90;;;;;;5109224;28;20036;-80
2023/06/17 06:18:10;;;;;;;20.00;9.57;;;16.60;99.90;;;;;;5093004;28;20043;-80
2023/06/17 06:20:36;;;;;;;22.80;11.23;;;16.60;99.90;;;;;;5093229;28;20074;-79
2023/06/17 06:23:03;;;;;;;17.98;10.02;;;16.60;99.90;;;;;;5093016;28;20093;-78
2023/06/17 06:25:30;;;;;;;18.67;10.77;;;16.70;99.90;;;;;;5092726;28;20043;-79
2023/06/17 06:27:58;;;;;;;19.60;10.27;;;16.70;99.90;;;;;;5076507;28;20050;-80
2023/06/17 06:30:25;;;;;;;17.00;10.43;;;16.70;99.90;;;;;;5110006;28;20044;-80
2023/06/17 06:32:52;;;;;;;18.20;9.93;;;16.70;99.90;;;;;;5076252;28;20040;-81
2023/06/17 06:35:18;;;;;;;15.35;10.38;;;16.70;99.90;;;;;;5076303;28;20036;-80
2023/06/17 06:37:45;;;;;;;17.08;9.90;;;16.80;99.90;;;;;;5076209;28;20086;-81
2023/06/17 06:40:12;;;;;;;21.30;11.30;;;16.80;99.90;;;;;;5076142;28;20036;-81
2023/06/17 06:42:39;;;;;;;17.80;10.40;;;16.80;99.90;;;;;;5109010;28;20040;-81
2023/06/17 06:45:09;;;;;;;16.42;10.23;;;16.80;99.90;;;;;;5076213;28;20407;-80
2023/06/17 06:47:36;;;;;;;19.35;10.65;;;17.10;99.90;;;;;;5092584;28;20058;-81
2023/06/17 06:50:03;;;;;;;24.33;11.82;;;16.90;99.90;;;;;;5076402;28;20048;-81
2023/06/17 06:52:30;;;;;;;21.77;11.52;;;16.90;99.90;;;;;;5126227;28;20046;-81
2023/06/17 06:54:57;;;;;;;18.38;11.00;;;16.90;99.90;;;;;;5083485;27;20484;-79
2023/06/17 06:57:23;;;;;;;20.58;11.93;;;17.00;99.90;;;;;;5156929;27;20078;-80
2023/06/17 06:59:50;;;;;;;21.50;12.13;;;17.00;99.90;;;;;;5123290;27;20451;-80
2023/06/17 07:02:17;;;;;;;23.58;11.65;;;17.10;99.90;;;;;;5123407;27;20035;-80
2023/06/17 07:04:43;;;;;;;21.88;11.85;;;17.10;99.90;;;;;;5123196;27;20039;-80
2023/06/17 07:07:10;;;;;;;19.25;11.55;;;17.20;99.90;;;;;;5119716;27;20407;-80
2023/06/17 07:09:38;;;;;;;19.40;10.82;;;17.10;99.90;;;;;;5117655;27;20050;-80
2023/06/17 07:12:06;;;;;;;18.38;10.43;;;17.10;99.90;;;;;;5123237;27;20042;-80
2023/06/17 07:14:32;;;;;;;20.80;10.95;;;17.20;99.90;;;;;;5108124;28;20046;-80
2023/06/17 07:16:59;;;;;;;18.13;10.52;;;17.20;99.90;;;;;;5086277;28;20032;-80
2023/06/17 07:19:26;;;;;;;18.05;10.52;;;17.30;99.90;;;;;;5122793;28;20122;-80
2023/06/17 07:21:52;;;;;;;17.30;10.13;;;17.30;99.90;;;;;;5118899;27;20039;-80
2023/06/17 07:24:19;;;;;;;16.30;9.77;;;17.50;99.90;;;;;;5113494;27;20039;-80
2023/06/17 07:26:46;;;;;;;20.33;11.13;;;17.70;99.90;;;;;;5157067;27;20047;-80
2023/06/17 07:29:12;;;;;;;19.77;10.57;;;17.60;99.90;;;;;;5106170;27;20046;-80
2023/06/17 07:31:39;;;;;;;16.92;10.43;;;17.70;99.90;;;;;;5106186;27;20050;-80
2023/06/17 07:34:06;;;;;;;18.35;10.50;;;17.80;99.90;;;;;;5097808;28;20027;-80
2023/06/17 07:36:33;;;;;;;16.63;9.95;;;17.70;99.90;;;;;;5103074;28;20085;-80
2023/06/17 07:38:59;;;;;;;16.17;9.35;;;17.90;99.90;;;;;;5103033;28;20035;-80
2023/06/17 07:41:26;;;;;;;19.20;9.60;;;17.90;99.90;;;;;;5086242;28;20127;-81
2023/06/17 07:43:53;;;;;;;17.55;9.23;;;18.00;99.90;;;;;;5119350;28;20035;-80
2023/06/17 07:46:20;;;;;;;20.15;10.00;;;18.10;99.90;;;;;;5119733;28;20484;-80
2023/06/17 07:48:46;;;;;;;15.90;9.55;;;18.20;99.90;;;;;;5128280;27;20035;-80
2023/06/17 07:51:13;;;;;;;17.83;9.65;;;18.40;99.90;;;;;;5122878;27;20072;-78
2023/06/17 07:53:40;;;;;;;17.30;9.50;;;18.40;99.90;;;;;;5145640;27;20035;-79
2023/06/17 07:56:07;;;;;;;15.10;9.32;;;18.40;99.90;;;;;;5100381;27;20055;-78
2023/06/17 07:58:33;;;;;;;19.48;10.27;;;18.50;99.90;;;;;;5153957;27;20094;-79
2023/06/17 08:01:01;;;;;;;18.55;9.77;;;18.50;99.90;;;;;;5118967;27;20502;-79
2023/06/17 08:03:28;;;;;;;15.98;9.45;;;18.70;99.90;;;;;;5116497;28;20040;-79
2023/06/17 08:05:54;;;;;;;17.70;9.48;;;18.70;99.90;;;;;;5099946;28;20051;-80
2023/06/17 08:08:21;;;;;;;16.80;9.73;;;18.80;99.90;;;;;;5102190;28;20122;-80
2023/06/17 08:10:49;;;;;;;19.48;9.70;;;18.80;99.90;;;;;;5116837;27;20069;-81
2023/06/17 08:13:15;;;;;;;14.68;9.13;;;18.90;99.90;;;;;;5102249;27;20039;-80
2023/06/17 08:15:42;;;;;;;18.10;9.45;;;19.00;99.90;;;;;;5118521;27;20046;-80
2023/06/17 08:18:09;;;;;;;12.88;8.85;;;19.10;99.90;;;;;;5119054;27;20071;-81
2023/06/17 08:20:36;;;;;;;16.13;9.43;;;19.20;99.90;;;;;;5135428;27;20051;-80
2023/06/17 08:23:03;;;;;;;14.90;8.70;;;19.20;99.90;;;;;;5119207;27;20487;-81
2023/06/17 08:25:31;;;;;;;19.30;10.00;;;19.20;99.90;;;;;;5102499;27;20134;-81
2023/06/17 08:27:58;;;;;;;17.40;8.80;;;19.10;99.90;;;;;;5135691;27;20051;-81
2023/06/17 08:30:25;;;;;;;15.43;8.63;;;19.00;99.90;;;;;;5118469;27;20035;-81
2023/06/17 08:32:52;;;;;;;14.02;8.77;;;19.10;99.90;;;;;;5135522;27;20043;-80
2023/06/17 08:35:19;;;;;;;16.02;9.20;;;19.20;99.90;;;;;;5118392;27;20047;-81
2023/06/17 08:37:47;;;;;;;16.98;9.38;;;19.30;99.90;;;;;;5101825;27;20599;-81
2023/06/17 08:40:15;;;;;;;21.08;9.20;;;19.50;99.90;;;;;;5119032;27;20585;-80
2023/06/17 08:42:42;;;;;;;19.23;9.00;;;19.60;99.90;;;;;;5118142;27;20495;-81
2023/06/17 08:45:09;;;;;;;14.55;8.63;;;19.70;99.90;;;;;;5134931;27;20555;-81
2023/06/17 08:47:36;;;;;;;13.65;8.38;;;19.80;99.90;;;;;;5102260;27;20130;-80
2023/06/17 08:50:03;;;;;;;12.73;8.38;;;19.90;99.90;;;;;;5151757;27;20123;-81
2023/06/17 08:52:33;;;;;;;14.55;7.93;;;20.00;99.90;;;;;;5118073;27;20039;-80
2023/06/17 08:55:01;;;;;;;15.85;8.20;;;20.20;99.90;;;;;;5134437;27;20079;-81
2023/06/17 08:57:28;;;;;;;12.82;8.45;;;20.40;99.90;;;;;;5101903;27;20131;-81
2023/06/17 08:59:55;;;;;;;15.73;8.10;;;20.50;99.90;;;;;;5117437;27;20063;-81
2023/06/17 09:02:22;;;;;;;13.75;8.13;;;20.60;99.90;;;;;;5117353;27;20063;-81
2023/06/17 09:04:49;;;;;;;13.88;8.25;;;20.70;99.90;;;;;;5097511;28;20546;-81
2023/06/17 09:07:15;;;;;;;15.80;8.63;;;20.80;99.90;;;;;;5097801;28;20201;-81
2023/06/17 09:09:48;;;;;;;14.95;7.95;;;20.90;99.90;;;;;;5115775;27;20039;-80
2023/06/17 09:12:14;;;;;;;15.38;8.77;;;21.00;99.90;;;;;;5134263;27;20073;-81
2023/06/17 09:14:44;;;;;;;13.93;7.60;;;21.10;99.90;;;;;;5152110;27;20502;-80
2023/06/17 09:17:24;;;;;;;13.70;7.45;;;21.30;99.90;;;;;;5134493;28;20062;-80
2023/06/17 09:19:53;;;;;;;15.10;8.05;;;21.40;99.90;;;;;;5142674;28;20114;-81
2023/06/17 09:22:20;;;;;;;17.98;8.32;;;21.60;99.90;;;;;;5117193;28;20119;-81
2023/06/17 09:24:47;;;;;;;14.70;8.85;;;21.70;99.90;;;;;;5111615;27;20718;-83
2023/06/17 09:27:21;;;;;;;12.60;7.80;;;21.80;99.90;;;;;;5117105;27;20088;-82
2023/06/17 09:30:04;;;;;;;12.63;8.32;;;21.70;99.90;;;;;;5116264;27;20081;-83
2023/06/17 09:32:39;;;;;;;14.70;8.10;;;21.90;99.90;;;;;;5135421;27;20051;-81
2023/06/17 09:35:11;;;;;;;13.68;7.35;;;21.70;99.90;;;;;;5150509;27;20526;-82
2023/06/17 09:37:38;;;;;;;12.93;7.82;;;21.80;99.90;;;;;;5117669;27;20039;-82
2023/06/17 09:40:06;;;;;;;12.05;6.82;;;21.80;99.90;;;;;;5113348;27;20035;-82
2023/06/17 09:42:33;;;;;;;12.27;7.22;;;21.90;99.90;;;;;;5088653;28;20084;-83
2023/06/17 09:45:06;;;;;;;13.85;7.60;;;22.00;99.90;;;;;;5115089;27;20043;-82
2023/06/17 09:47:33;;;;;;;12.25;7.78;;;22.00;99.90;;;;;;5133382;27;20031;-82
2023/06/17 09:50:04;;;;;;;15.13;7.90;;;22.10;99.90;;;;;;5099451;27;20078;-80
2023/06/17 09:52:35;;;;;;;14.88;7.80;;;22.20;99.90;;;;;;5128972;27;20047;-82
2023/06/17 09:55:04;;;;;;;11.60;7.32;;;22.30;99.90;;;;;;5099470;28;20115;-82
2023/06/17 09:57:32;;;;;;;10.90;6.55;;;22.50;99.90;;;;;;5110159;28;20122;-82
2023/06/17 10:00:21;;;;;;;10.93;7.53;;;22.70;99.90;;;;;;5132980;27;20499;-82
2023/06/17 10:02:46;;;;;;;13.43;7.07;;;23.00;99.90;;;;;;5135519;27;20046;-83
2023/06/17 10:05:15;;;;;;;12.50;7.18;;;23.00;99.90;;;;;;5116430;27;20134;-83
2023/06/17 10:07:43;;;;;;;15.90;7.65;;;23.20;99.90;;;;;;5100515;27;20122;-82
2023/06/17 10:10:13;;;;;;;15.40;7.50;;;23.40;99.90;;;;;;5099300;27;20041;-82
2023/06/17 10:12:44;;;;;;;12.68;7.03;;;23.50;99.90;;;;;;5132965;27;20495;-83
2023/06/17 10:15:13;;;;;;;11.15;7.07;;;23.50;99.90;;;;;;5115856;27;20570;-82
2023/06/17 10:17:52;;;;;;;12.20;7.15;;;23.60;99.90;;;;;;5112383;28;20036;-82
2023/06/17 10:20:21;;;;;;;9.48;6.30;;;23.60;99.90;;;;;;5130089;28;20058;-82
2023/06/17 10:22:54;;;;;;;13.13;6.38;;;23.60;99.90;;;;;;5112578;28;20054;-82
2023/06/17 10:25:21;;;;;;;12.38;6.93;;;23.50;99.90;;;;;;5113046;28;20506;-83
2023/06/17 10:27:47;;;;;;;12.10;6.55;;;23.70;99.90;;;;;;5095655;28;20043;-82
2023/06/17 10:30:25;;;;;;;11.43;6.60;;;23.80;99.90;;;;;;5078808;28;20050;-82
2023/06/17 10:32:57;;;;;;;10.82;6.20;;;23.80;99.90;;;;;;5130555;27;20043;-83
2023/06/17 10:35:35;;;;;;;10.95;6.25;;;23.80;99.90;;;;;;5131095;28;20027;-82
2023/06/17 10:38:02;;;;;;;16.13;7.00;;;24.00;99.90;;;;;;5134345;27;20034;-81
2023/06/17 10:40:35;;;;;;;10.25;6.85;;;24.10;99.90;;;;;;5114944;28;20064;-81
2023/06/17 10:43:02;;;;;;;12.75;6.32;;;24.30;99.90;;;;;;5092795;28;20081;-81
2023/06/17 10:45:32;;;;;;;12.25;6.72;;;24.50;99.90;;;;;;5142749;27;20809;-82
2023/06/17 10:48:32;;;;;;;11.52;6.18;;;24.70;99.90;;;;;;5126989;27;20039;-82
2023/06/17 10:51:18;;;;;;;11.57;5.93;;;24.80;99.90;;;;;;5119028;28;20100;-82
2023/06/17 10:53:51;;;;;;;11.23;6.00;;;25.00;99.90;;;;;;5133136;28;20039;-82
2023/06/17 10:56:18;;;;;;;10.82;6.40;;;25.10;99.90;;;;;;5104917;28;20472;-82
2023/06/17 10:58:47;;;;;;;11.93;6.47;;;25.20;99.90;;;;;;5101083;28;20078;-82
2023/06/17 11:01:14;;;;;;;12.07;6.30;;;25.20;99.90;;;;;;5116373;28;20071;-82
2023/06/17 11:03:40;;;;;;;11.38;6.15;;;25.30;99.90;;;;;;5119782;27;20067;-81
2023/06/17 11:06:09;;;;;;;11.48;6.68;;;25.30;99.90;;;;;;5131995;28;20108;-80
2023/06/17 11:08:37;;;;;;;13.95;7.05;;;25.30;99.90;;;;;;5115495;28;20499;-79
2023/06/17 11:11:12;;;;;;;10.73;5.55;;;25.40;99.90;;;;;;5126487;28;20131;-80
2023/06/17 11:13:39;;;;;;;;;;;25.40;99.90;;;;;;5118729;28;20403;-80
2023/06/17 11:16:06;;;;;;;9.52;6.20;;;25.40;99.90;;;;;;5110517;28;19983;-81
2023/06/17 11:18:39;;;;;;;9.35;6.18;;;25.50;99.90;;;;;;5096023;28;20036;-80
2023/06/17 11:21:06;;;;;;;10.50;6.05;;;25.60;99.90;;;;;;5132682;28;20104;-81
2023/06/17 11:23:35;;;;;;;14.95;6.93;;;25.60;99.90;;;;;;5125412;28;20043;-82
2023/06/17 11:26:02;;;;;;;11.65;6.28;;;25.50;99.90;;;;;;5132259;28;20046;-82
2023/06/17 11:28:31;;;;;;;12.98;6.63;;;25.60;99.90;;;;;;5116705;28;20039;-81
2023/06/17 11:30:59;;;;;;;12.60;6.35;;;25.60;99.90;;;;;;5116103;28;20129;-81
2023/06/17 11:33:28;;;;;;;9.20;5.88;;;25.70;99.90;;;;;;5132203;28;20131;-81
2023/06/17 11:35:55;;;;;;;12.85;6.80;;;25.90;99.90;;;;;;5100001;28;20058;-81
2023/06/17 11:38:22;;;;;;;10.88;6.43;;;25.90;99.90;;;;;;5132995;28;20031;-81
2023/06/17 11:40:56;;;;;;;8.13;5.93;;;25.90;99.90;;;;;;5117597;27;20036;-81
2023/06/17 11:43:26;;;;;;;12.88;6.00;;;26.00;99.90;;;;;;5136446;27;20070;-81
2023/06/17 11:45:57;;;;;;;10.57;6.00;;;26.00;99.90;;;;;;5137248;27;20054;-83
2023/06/17 11:48:28;;;;;;;10.63;5.50;;;26.10;99.90;;;;;;5120908;27;20035;-83
2023/06/17 11:50:58;;;;;;;12.65;6.50;;;26.10;99.90;;;;;;5120238;27;20045;-83
2023/06/17 11:53:37;;;;;;;11.50;6.30;;;26.20;99.90;;;;;;5119991;27;20039;-84
2023/06/17 11:56:08;;;;;;;9.93;5.15;;;26.30;99.90;;;;;;5136045;27;20448;-84
2023/06/17 11:58:42;;;;;;;9.13;5.15;;;26.30;99.90;;;;;;5131089;27;20039;-84
2023/06/17 12:01:09;;;;;;;9.33;5.67;;;26.30;99.90;;;;;;5120045;27;20038;-84
2023/06/17 12:03:36;;;;;;;11.27;5.93;;;26.40;99.90;;;;;;5136751;27;20092;-84
2023/06/17 12:06:37;;;;;;;12.63;5.60;;;26.40;99.90;;;;;;5103182;27;20035;-86
2023/06/17 12:09:04;;;;;;;10.52;5.60;;;26.40;99.90;;;;;;5097516;27;20055;-84
2023/06/17 12:11:32;;;;;;;9.98;5.07;;;26.50;99.90;;;;;;5135969;27;20051;-82
2023/06/17 12:13:59;;;;;;;8.25;4.78;;;26.50;99.90;;;;;;5135852;27;20039;-83
2023/06/17 12:16:33;;;;;;;10.27;4.88;;;26.50;99.90;;;;;;5135758;27;20043;-83
2023/06/17 12:19:01;;;;;;;10.82;5.60;;;26.60;99.80;;;;;;5135725;27;20147;-83
2023/06/17 12:21:29;;;;;;;8.80;5.72;;;26.60;99.80;;;;;;5135669;27;20107;-83
2023/06/17 12:23:56;;;;;;;12.15;5.53;;;26.70;99.80;;;;;;5135915;27;20043;-83
2023/06/17 12:26:26;;;;;;;13.20;6.32;;;26.80;99.90;;;;;;5119040;27;20039;-83
2023/06/17 12:28:54;;;;;;;13.13;7.22;;;26.60;99.90;;;;;;5119743;27;20129;-83
2023/06/17 12:31:21;;;;;;;12.05;6.63;;;26.60;99.90;;;;;;5102643;27;20399;-83
2023/06/17 12:33:49;;;;;;;13.85;7.18;;;26.50;99.90;;;;;;5116812;28;20406;-82
2023/06/17 12:36:16;;;;;;;14.07;7.22;;;26.60;99.90;;;;;;5098464;28;20039;-82
2023/06/17 12:38:44;;;;;;;14.90;7.53;;;26.60;99.90;;;;;;5114960;28;20403;-80